createdAt,value
2022-12-03T00:03:55.392Z,15.83
2022-12-03T00:07:56.645Z,12.53
2022-12-03T00:11:57.845Z,15.93
2022-12-03T00:15:58.992Z,15.70
2022-12-03T00:20:00.159Z,15.37
2022-12-03T00:24:01.354Z,15.60
2022-12-03T00:28:02.553Z,14.30
2022-12-03T00:32:03.883Z,14.30
2022-12-03T00:36:05.754Z,15.20
2022-12-03T00:40:08.046Z,13.33
2022-12-03T00:44:11.107Z,16.37
2022-12-03T00:48:12.171Z,14.90
2022-12-03T00:52:13.342Z,14.13
2022-12-03T00:56:14.739Z,16.30
2022-12-03T01:00:16.266Z,16.00
2022-12-03T01:04:17.431Z,14.77
2022-12-03T01:08:18.731Z,15.10
2022-12-03T01:12:19.888Z,16.30
2022-12-03T01:16:21.209Z,13.37
2022-12-03T01:20:22.332Z,14.63
2022-12-03T01:24:23.510Z,15.17
2022-12-03T01:28:24.578Z,15.70
2022-12-03T01:32:25.754Z,14.20
2022-12-03T01:36:26.926Z,17.03
2022-12-03T01:40:28.255Z,16.43
2022-12-03T01:44:34.445Z,17.63
2022-12-03T01:48:37.924Z,17.20
2022-12-03T01:52:40.199Z,17.00
2022-12-03T01:56:41.391Z,16.67
2022-12-03T02:00:42.563Z,16.27
2022-12-03T02:04:43.878Z,16.53
2022-12-03T02:08:46.356Z,16.00
2022-12-03T02:13:00.404Z,16.53
2022-12-03T02:17:01.558Z,15.20
2022-12-03T02:21:15.213Z,16.97
2022-12-03T02:25:26.144Z,18.90
2022-12-03T02:29:27.322Z,16.97
2022-12-03T02:33:29.394Z,16.77
2022-12-03T02:37:33.963Z,16.13
2022-12-03T02:41:53.518Z,16.20
2022-12-03T02:45:57.800Z,16.57
2022-12-03T02:49:59.850Z,16.67
2022-12-03T02:54:01.241Z,16.70
2022-12-03T02:58:03.831Z,18.50
2022-12-03T03:02:05.145Z,16.50
2022-12-03T03:06:08.064Z,16.87
2022-12-03T03:10:12.946Z,17.23
2022-12-03T03:14:14.119Z,15.37
2022-12-03T03:18:15.990Z,18.00
2022-12-03T03:22:17.959Z,16.83
2022-12-03T03:26:19.171Z,17.50
2022-12-03T03:30:20.346Z,16.27
2022-12-03T03:34:21.424Z,18.97
2022-12-03T03:38:23.577Z,16.60
2022-12-03T03:42:24.958Z,18.63
2022-12-03T03:46:27.395Z,15.97
2022-12-03T03:50:30.826Z,15.63
2022-12-03T03:54:32.402Z,15.73
2022-12-03T03:58:34.673Z,15.97
2022-12-03T04:02:36.034Z,18.37
2022-12-03T04:06:37.236Z,15.93
2022-12-03T04:10:56.644Z,16.93
2022-12-03T04:14:58.148Z,15.40
2022-12-03T04:18:59.314Z,14.80
2022-12-03T04:23:00.752Z,15.40
2022-12-03T04:27:20.367Z,15.57
2022-12-03T04:31:39.919Z,15.30
2022-12-03T04:35:44.138Z,15.33
2022-12-03T04:39:45.628Z,14.47
2022-12-03T04:44:05.336Z,13.93
2022-12-03T04:48:06.523Z,15.60
2022-12-03T04:52:08.987Z,15.53
2022-12-03T04:56:12.063Z,13.67
2022-12-03T05:00:14.752Z,12.40
2022-12-03T05:04:18.462Z,13.40
2022-12-03T05:08:19.564Z,15.83
2022-12-03T05:12:20.697Z,16.40
2022-12-03T05:16:21.963Z,13.13
2022-12-03T05:20:41.218Z,14.30
2022-12-03T05:24:42.390Z,12.67
2022-12-03T05:28:43.670Z,16.10
2022-12-03T05:32:44.755Z,12.80
2022-12-03T05:36:45.940Z,14.60
2022-12-03T05:40:46.990Z,18.77
2022-12-03T05:44:48.165Z,13.00
2022-12-03T05:48:49.315Z,15.10
2022-12-03T05:52:50.612Z,12.30
2022-12-03T05:56:51.792Z,13.83
2022-12-03T06:00:52.857Z,12.97
2022-12-03T06:04:54.293Z,14.60
2022-12-03T06:08:55.617Z,11.47
2022-12-03T06:12:56.705Z,11.43
2022-12-03T06:16:57.905Z,11.13
2022-12-03T06:20:59.068Z,11.33
2022-12-03T06:25:06.217Z,11.20
2022-12-03T06:29:03.146Z,12.13
2022-12-03T06:33:07.059Z,11.67
2022-12-03T06:37:08.280Z,11.20
2022-12-03T06:41:09.382Z,10.13
2022-12-03T06:45:11.387Z,10.50
2022-12-03T06:49:12.582Z,12.03
2022-12-03T06:53:13.679Z,11.67
2022-12-03T06:57:15.571Z,11.77
2022-12-03T07:01:16.828Z,13.57
2022-12-03T07:05:18.203Z,13.90
2022-12-03T07:09:19.456Z,11.17
2022-12-03T07:13:20.942Z,12.97
2022-12-03T07:17:22.064Z,13.23
2022-12-03T07:21:23.143Z,13.00
2022-12-03T07:25:24.233Z,10.30
2022-12-03T07:29:25.437Z,13.93
2022-12-03T07:33:26.611Z,13.20
2022-12-03T07:37:27.725Z,12.27
2022-12-03T07:41:28.924Z,12.60
2022-12-03T07:45:30.220Z,13.43
2022-12-03T07:49:32.106Z,15.50
2022-12-03T07:53:35.203Z,14.93
2022-12-03T07:57:36.389Z,13.20
2022-12-03T08:01:37.809Z,13.30
2022-12-03T08:05:39.080Z,14.07
2022-12-03T08:09:40.355Z,13.30
2022-12-03T08:13:41.930Z,13.30
2022-12-03T08:17:45.428Z,15.37
2022-12-03T08:21:46.494Z,13.53
2022-12-03T08:25:49.682Z,13.07
2022-12-03T08:29:54.661Z,14.70
2022-12-03T08:33:59.651Z,14.07
2022-12-03T08:38:07.596Z,12.27
2022-12-03T08:42:43.387Z,13.77
2022-12-03T08:46:44.578Z,13.20
2022-12-03T08:50:46.154Z,14.73
2022-12-03T08:54:53.502Z,14.40
2022-12-03T08:59:01.700Z,17.60
2022-12-03T09:03:04.582Z,16.33
2022-12-03T09:07:05.674Z,15.73
2022-12-03T09:11:06.938Z,15.43
2022-12-03T09:15:08.377Z,16.40
2022-12-03T09:19:09.437Z,16.23
2022-12-03T09:23:10.521Z,17.00
2022-12-03T09:27:11.682Z,16.87
2022-12-03T09:31:12.844Z,16.80
2022-12-03T09:35:14.129Z,17.80
2022-12-03T09:39:15.216Z,18.30
2022-12-03T09:43:17.299Z,18.67
2022-12-03T09:47:18.758Z,20.87
2022-12-03T09:51:19.814Z,16.50
2022-12-03T09:55:24.432Z,16.60
2022-12-03T09:59:33.950Z,21.30
2022-12-03T10:03:36.457Z,21.90
2022-12-03T10:07:38.033Z,23.50
2022-12-03T10:11:39.868Z,16.27
2022-12-03T10:15:41.041Z,18.03
2022-12-03T10:19:42.315Z,20.93
2022-12-03T10:23:46.468Z,18.83
2022-12-03T10:28:03.385Z,20.30
2022-12-03T10:32:11.133Z,18.73
2022-12-03T10:36:24.023Z,19.00
2022-12-03T10:40:28.564Z,17.80
2022-12-03T10:44:29.924Z,20.03
2022-12-03T10:48:31.089Z,26.30
2022-12-03T10:52:32.356Z,21.73
2022-12-03T10:56:33.526Z,18.60
2022-12-03T11:00:35.027Z,21.60
2022-12-03T11:04:36.298Z,17.90
2022-12-03T11:08:37.522Z,21.80
2022-12-03T11:12:38.666Z,19.10
2022-12-03T11:16:43.652Z,20.30
2022-12-03T11:20:48.618Z,18.70
2022-12-03T11:24:59.076Z,20.57
2022-12-03T11:29:00.259Z,19.97
2022-12-03T11:33:03.698Z,21.27
2022-12-03T11:37:14.722Z,22.63
2022-12-03T11:41:25.053Z,22.27
2022-12-03T11:45:30.037Z,21.33
2022-12-03T11:49:34.807Z,20.10
2022-12-03T11:53:35.887Z,21.10
2022-12-03T11:57:38.975Z,22.80
2022-12-03T12:01:40.745Z,21.97
2022-12-03T12:05:41.916Z,18.93
2022-12-03T12:09:54.427Z,19.87
2022-12-03T12:13:58.375Z,20.17
2022-12-03T12:18:37.067Z,23.00
2022-12-03T12:22:38.643Z,19.13
2022-12-03T12:26:43.528Z,20.07
2022-12-03T12:30:44.582Z,21.33
2022-12-03T12:34:48.255Z,19.90
2022-12-03T12:38:49.447Z,19.37
2022-12-03T12:42:59.177Z,21.57
2022-12-03T12:47:03.680Z,22.33
2022-12-03T12:51:13.810Z,22.90
2022-12-03T12:55:16.687Z,22.67
2022-12-03T12:59:20.195Z,18.47
2022-12-03T13:03:25.085Z,23.77
2022-12-03T13:07:26.286Z,21.50
2022-12-03T13:11:41.108Z,22.70
2022-12-03T13:15:52.413Z,20.07
2022-12-03T13:20:03.628Z,22.10
2022-12-03T13:24:04.783Z,20.73
2022-12-03T13:28:07.375Z,20.73
2022-12-03T13:32:15.456Z,21.60
2022-12-03T13:36:19.450Z,24.60
2022-12-03T13:40:27.339Z,22.20
2022-12-03T13:44:31.417Z,23.33
2022-12-03T13:48:35.029Z,22.13
2022-12-03T13:52:36.291Z,24.33
2022-12-03T13:56:37.380Z,24.90
2022-12-03T14:00:38.607Z,24.63
2022-12-03T14:04:40.203Z,23.87
2022-12-03T14:08:41.356Z,24.33
2022-12-03T14:12:42.428Z,21.40
2022-12-03T14:16:43.560Z,25.90
2022-12-03T14:20:44.629Z,24.83
2022-12-03T14:24:45.812Z,30.20
2022-12-03T14:28:47.019Z,28.83
2022-12-03T14:32:48.198Z,23.80
2022-12-03T14:36:49.395Z,26.60
2022-12-03T14:40:50.481Z,23.33
2022-12-03T14:44:51.668Z,22.97
2022-12-03T14:48:52.752Z,22.67
2022-12-03T14:52:53.953Z,21.93
2022-12-03T14:56:55.141Z,23.80
2022-12-03T15:00:56.241Z,36.33
2022-12-03T15:04:57.378Z,33.53
2022-12-03T15:08:58.550Z,28.43
2022-12-03T15:12:59.853Z,27.03
2022-12-03T15:17:01.071Z,23.00
2022-12-03T15:21:02.225Z,25.17
2022-12-03T15:25:03.681Z,25.40
2022-12-03T15:29:04.774Z,24.93
2022-12-03T15:33:05.833Z,25.27
2022-12-03T15:37:08.420Z,23.63
2022-12-03T15:41:23.551Z,26.47
2022-12-03T15:45:24.723Z,26.60
2022-12-03T15:49:25.899Z,26.47
2022-12-03T15:53:26.965Z,29.73
2022-12-03T15:57:28.966Z,31.57
2022-12-03T16:01:30.198Z,31.67
2022-12-03T16:05:31.639Z,25.00
2022-12-03T16:09:32.792Z,28.93
2022-12-03T16:13:33.890Z,26.90
2022-12-03T16:17:34.971Z,27.17
2022-12-03T16:21:36.258Z,23.77
2022-12-03T16:25:37.515Z,23.60
2022-12-03T16:29:38.610Z,24.90
2022-12-03T16:33:39.697Z,26.00
2022-12-03T16:37:40.841Z,25.33
2022-12-03T16:41:42.027Z,27.00
2022-12-03T16:45:57.170Z,26.17
2022-12-03T16:49:58.354Z,27.47
2022-12-03T16:53:59.500Z,28.20
2022-12-03T16:58:01.185Z,27.47
2022-12-03T17:02:02.625Z,24.17
2022-12-03T17:06:04.218Z,24.23
2022-12-03T17:10:06.248Z,27.77
2022-12-03T17:14:07.394Z,25.13
2022-12-03T17:18:08.982Z,25.00
2022-12-03T17:22:10.156Z,29.63
2022-12-03T17:26:11.260Z,28.13
2022-12-03T17:30:13.091Z,24.07
2022-12-03T17:34:14.272Z,25.90
2022-12-03T17:38:17.015Z,29.23
2022-12-03T17:42:18.391Z,21.30
2022-12-03T17:46:19.721Z,26.73
2022-12-03T17:50:20.940Z,23.10
2022-12-03T17:54:22.108Z,23.10
2022-12-03T17:58:23.201Z,22.87
2022-12-03T18:02:24.284Z,23.50
2022-12-03T18:06:25.646Z,23.90
2022-12-03T18:10:26.835Z,23.37
2022-12-03T18:14:27.915Z,22.57
2022-12-03T18:18:29.105Z,23.97
2022-12-03T18:22:30.890Z,24.30
2022-12-03T18:26:32.268Z,22.50
2022-12-03T18:30:34.237Z,25.23
2022-12-03T18:34:35.325Z,25.17
2022-12-03T18:38:36.396Z,23.67
2022-12-03T18:42:37.490Z,24.90
2022-12-03T18:46:52.897Z,24.20
2022-12-03T18:50:42.657Z,26.90
2022-12-03T18:54:44.442Z,24.57
2022-12-03T18:58:45.597Z,23.43
2022-12-03T19:03:02.397Z,22.00
2022-12-03T19:06:49.638Z,20.60
2022-12-03T19:10:56.333Z,21.57
2022-12-03T19:14:57.525Z,21.27
2022-12-03T19:18:58.607Z,23.47
2022-12-03T19:22:59.678Z,22.33
2022-12-03T19:27:00.775Z,20.80
2022-12-03T19:31:05.123Z,21.93
2022-12-03T19:35:07.394Z,23.40
2022-12-03T19:39:08.546Z,22.10
2022-12-03T19:43:09.726Z,22.57
2022-12-03T19:47:10.832Z,22.90
2022-12-03T19:51:32.981Z,21.83
2022-12-03T19:55:17.898Z,21.40
2022-12-03T19:59:19.101Z,20.33
2022-12-03T20:03:20.443Z,22.47
2022-12-03T20:07:21.542Z,26.30
2022-12-03T20:11:25.959Z,21.10
2022-12-03T20:15:27.518Z,21.83
2022-12-03T20:19:28.694Z,22.00
2022-12-03T20:23:29.771Z,22.07
2022-12-03T20:27:32.179Z,21.20
2022-12-03T20:31:33.540Z,22.07
2022-12-03T20:35:34.868Z,20.47
2022-12-03T20:39:36.039Z,18.17
2022-12-03T20:43:37.706Z,17.67
2022-12-03T20:47:38.801Z,24.70
2022-12-03T20:51:41.671Z,16.73
2022-12-03T20:55:42.842Z,20.43
2022-12-03T20:59:44.068Z,18.33
2022-12-03T21:03:45.951Z,18.03
2022-12-03T21:07:48.129Z,19.10
2022-12-03T21:11:49.244Z,18.13
2022-12-03T21:15:54.116Z,17.70
2022-12-03T21:19:55.389Z,17.70
2022-12-03T21:23:57.084Z,18.53
2022-12-03T21:27:58.238Z,20.67
2022-12-03T21:31:59.343Z,19.50
2022-12-03T21:36:01.231Z,16.00
2022-12-03T21:40:02.596Z,14.90
2022-12-03T21:44:03.922Z,16.13
2022-12-03T21:48:05.590Z,13.97
2022-12-03T21:52:06.769Z,15.30
2022-12-03T21:56:11.667Z,13.70
2022-12-03T22:00:14.274Z,15.70
2022-12-03T22:04:15.567Z,18.00
2022-12-03T22:08:17.355Z,14.57
2022-12-03T22:12:18.519Z,14.57
2022-12-03T22:16:21.167Z,13.87
2022-12-03T22:20:22.497Z,13.60
2022-12-03T22:24:23.601Z,16.70
2022-12-03T22:28:24.865Z,14.63
2022-12-03T22:32:26.217Z,16.10
2022-12-03T22:36:27.398Z,14.60
2022-12-03T22:40:28.674Z,15.17
2022-12-03T22:44:30.180Z,13.33
2022-12-03T22:48:35.034Z,15.17
2022-12-03T22:52:36.220Z,13.00
2022-12-03T22:56:37.877Z,14.00
2022-12-03T23:00:40.456Z,14.50
2022-12-03T23:04:41.619Z,14.60
2022-12-03T23:08:42.715Z,13.97
2022-12-03T23:12:43.870Z,14.20
2022-12-03T23:16:45.049Z,13.50
2022-12-03T23:20:48.632Z,12.50
2022-12-03T23:24:49.783Z,14.17
2022-12-03T23:28:50.863Z,15.47
2022-12-03T23:32:51.936Z,14.57
2022-12-03T23:36:53.044Z,15.60
2022-12-03T23:40:54.231Z,15.83
2022-12-03T23:44:55.338Z,16.33
2022-12-03T23:48:58.469Z,14.30
2022-12-03T23:52:59.666Z,15.17
2022-12-03T23:57:00.787Z,14.97
